createdAt,value
2023-04-09T00:00:49.432Z,101460.28
2023-04-09T00:01:51.905Z,101467.44
2023-04-09T00:02:53.577Z,101474.06
2023-04-09T00:03:56.444Z,101469.47
2023-04-09T00:04:58.182Z,101471.22
2023-04-09T00:06:02.208Z,101465.50
2023-04-09T00:07:03.709Z,101463.56
2023-04-09T00:08:06.512Z,101473.22
2023-04-09T00:09:08.069Z,101472.63
2023-04-09T00:10:10.886Z,101476.94
2023-04-09T00:11:12.397Z,101471.41
2023-04-09T00:12:14.892Z,101474.25
2023-04-09T00:13:22.575Z,101473.63
2023-04-09T00:14:31.029Z,101482.63
2023-04-09T00:15:32.518Z,101475.00
2023-04-09T00:16:35.048Z,101473.69
2023-04-09T00:17:36.777Z,101479.22
2023-04-09T00:18:39.295Z,101475.44
2023-04-09T00:19:40.880Z,101467.69
2023-04-09T00:20:44.247Z,101477.34
2023-04-09T00:21:48.263Z,101468.56
2023-04-09T00:22:51.905Z,101474.81
2023-04-09T00:23:53.426Z,101469.00
2023-04-09T00:24:55.999Z,101472.22
2023-04-09T00:25:57.550Z,101473.72
2023-04-09T00:27:00.043Z,101470.47
2023-04-09T00:28:01.689Z,101475.81
2023-04-09T00:29:04.336Z,101460.69
2023-04-09T00:30:07.259Z,101472.28
2023-04-09T00:31:09.906Z,101473.97
2023-04-09T00:32:11.446Z,101473.25
2023-04-09T00:33:13.907Z,101478.31
2023-04-09T00:34:15.868Z,101479.22
2023-04-09T00:35:18.490Z,101473.50
2023-04-09T00:36:19.995Z,101463.50
2023-04-09T00:37:23.835Z,101474.03
2023-04-09T00:38:25.403Z,101475.03
2023-04-09T00:39:27.943Z,101479.66
2023-04-09T00:40:29.582Z,101480.53
2023-04-09T00:41:32.044Z,101475.34
2023-04-09T00:42:34.517Z,101478.50
2023-04-09T00:43:39.520Z,101470.69
2023-04-09T00:44:41.077Z,101471.22
2023-04-09T00:45:43.569Z,101480.06
2023-04-09T00:46:45.249Z,101472.91
2023-04-09T00:47:47.913Z,101476.72
2023-04-09T00:48:49.720Z,101484.03
2023-04-09T00:49:52.427Z,101476.25
2023-04-09T00:50:54.049Z,101479.63
2023-04-09T00:51:56.860Z,101482.47
2023-04-09T00:53:00.470Z,101487.03
2023-04-09T00:54:03.117Z,101475.78
2023-04-09T00:55:06.007Z,101480.81
2023-04-09T00:56:09.175Z,101485.88
2023-04-09T00:57:11.296Z,101474.66
2023-04-09T00:58:14.758Z,101479.31
2023-04-09T00:59:16.474Z,101471.28
2023-04-09T01:00:19.322Z,101478.91
2023-04-09T01:01:20.912Z,101480.03
2023-04-09T01:02:23.847Z,101473.81
2023-04-09T01:03:25.862Z,101488.03
2023-04-09T01:04:28.535Z,101484.81
2023-04-09T01:05:37.950Z,101472.91
2023-04-09T01:06:52.772Z,101479.47
2023-04-09T01:08:08.783Z,101487.03
2023-04-09T01:09:19.139Z,101481.88
2023-04-09T01:10:28.593Z,101476.69
2023-04-09T01:11:37.004Z,101478.81
2023-04-09T01:12:51.222Z,101476.78
2023-04-09T01:14:05.351Z,101478.19
2023-04-09T01:15:09.910Z,101480.22
2023-04-09T01:16:16.757Z,101473.44
2023-04-09T01:17:24.348Z,101476.19
2023-04-09T01:18:31.973Z,101478.22
2023-04-09T01:19:42.805Z,101477.19
2023-04-09T01:20:53.045Z,101484.19
2023-04-09T01:21:57.832Z,101474.38
2023-04-09T01:23:08.490Z,101481.22
2023-04-09T01:24:21.189Z,101479.94
2023-04-09T01:25:38.572Z,101479.16
2023-04-09T01:26:54.764Z,101486.19
2023-04-09T01:28:13.046Z,101478.53
2023-04-09T01:29:17.603Z,101479.13
2023-04-09T01:30:22.652Z,101475.38
2023-04-09T01:31:30.088Z,101479.22
2023-04-09T01:32:35.415Z,101483.19
2023-04-09T01:33:38.458Z,101482.94
2023-04-09T01:34:42.487Z,101478.78
2023-04-09T01:35:46.718Z,101480.59
2023-04-09T01:36:53.123Z,101480.66
2023-04-09T01:37:55.844Z,101473.97
2023-04-09T01:38:58.609Z,101481.88
2023-04-09T01:40:00.403Z,101480.22
2023-04-09T01:41:04.507Z,101475.19
2023-04-09T01:42:09.673Z,101482.72
2023-04-09T01:43:14.985Z,101473.06
2023-04-09T01:44:17.834Z,101477.53
2023-04-09T01:45:22.034Z,101479.84
2023-04-09T01:46:25.471Z,101479.66
2023-04-09T01:47:28.738Z,101478.22
2023-04-09T01:48:31.567Z,101480.81
2023-04-09T01:49:34.274Z,101474.44
2023-04-09T01:50:35.881Z,101477.47
2023-04-09T01:51:38.933Z,101477.63
2023-04-09T01:52:41.190Z,101473.38
2023-04-09T01:53:43.799Z,101477.56
2023-04-09T01:54:45.293Z,101465.19
2023-04-09T01:55:47.831Z,101475.00
2023-04-09T01:56:49.462Z,101466.03
2023-04-09T01:57:51.929Z,101474.44
2023-04-09T01:58:55.026Z,101472.31
2023-04-09T01:59:57.772Z,101474.66
2023-04-09T02:01:05.606Z,101471.25
2023-04-09T02:02:13.189Z,101473.97
2023-04-09T02:03:18.850Z,101471.63
2023-04-09T02:04:25.115Z,101466.06
2023-04-09T02:05:31.808Z,101468.41
2023-04-09T02:06:40.110Z,101473.84
2023-04-09T02:07:45.425Z,101468.00
2023-04-09T02:08:48.785Z,101466.22
2023-04-09T02:09:53.291Z,101469.09
2023-04-09T02:11:03.255Z,101468.16
2023-04-09T02:12:07.046Z,101471.81
2023-04-09T02:13:12.649Z,101470.66
2023-04-09T02:14:16.302Z,101477.03
2023-04-09T02:15:21.314Z,101470.06
2023-04-09T02:16:23.392Z,101480.22
2023-04-09T02:17:25.913Z,101477.75
2023-04-09T02:18:29.539Z,101481.03
2023-04-09T02:19:42.215Z,101476.09
2023-04-09T02:20:43.801Z,101480.78
2023-04-09T02:21:47.113Z,101479.72
2023-04-09T02:22:48.761Z,101477.66
2023-04-09T02:23:51.307Z,101478.69
2023-04-09T02:24:52.880Z,101479.47
2023-04-09T02:25:55.797Z,101475.91
2023-04-09T02:26:57.854Z,101480.28
2023-04-09T02:28:00.358Z,101478.84
2023-04-09T02:29:01.944Z,101477.50
2023-04-09T02:30:06.810Z,101477.53
2023-04-09T02:31:08.386Z,101484.91
2023-04-09T02:32:10.966Z,101476.69
2023-04-09T02:33:12.500Z,101479.97
2023-04-09T02:34:15.041Z,101476.56
2023-04-09T02:35:16.582Z,101478.13
2023-04-09T02:36:19.094Z,101471.19
2023-04-09T02:37:20.775Z,101478.00
2023-04-09T02:38:23.408Z,101471.06
2023-04-09T02:39:25.139Z,101476.78
2023-04-09T02:40:27.981Z,101478.69
2023-04-09T02:41:31.744Z,101477.38
2023-04-09T02:42:34.412Z,101479.09
2023-04-09T02:43:36.162Z,101475.66
2023-04-09T02:44:38.624Z,101484.81
2023-04-09T02:45:42.488Z,101481.44
2023-04-09T02:46:45.973Z,101477.53
2023-04-09T02:47:47.583Z,101487.28
2023-04-09T02:48:50.399Z,101487.16
2023-04-09T02:49:52.212Z,101480.81
2023-04-09T02:50:55.198Z,101487.03
2023-04-09T02:51:56.761Z,101479.53
2023-04-09T02:52:59.792Z,101479.59
2023-04-09T02:54:01.547Z,101493.88
2023-04-09T02:55:04.225Z,101493.94
2023-04-09T02:56:06.084Z,101498.25
2023-04-09T02:57:08.598Z,101492.09
2023-04-09T02:58:10.221Z,101489.34
2023-04-09T02:59:12.760Z,101488.75
2023-04-09T03:00:14.938Z,101493.75
2023-04-09T03:01:18.863Z,101488.94
2023-04-09T03:02:20.826Z,101489.97
2023-04-09T03:03:23.622Z,101479.19
2023-04-09T03:04:25.450Z,101493.75
2023-04-09T03:05:28.097Z,101486.66
2023-04-09T03:06:29.647Z,101484.41
2023-04-09T03:07:32.161Z,101491.91
2023-04-09T03:08:33.713Z,101486.03
2023-04-09T03:09:36.248Z,101487.69
2023-04-09T03:10:37.872Z,101490.75
2023-04-09T03:11:40.341Z,101482.94
2023-04-09T03:12:44.519Z,101480.97
2023-04-09T03:13:47.038Z,101483.47
2023-04-09T03:14:48.776Z,101483.19
2023-04-09T03:15:52.779Z,101478.19
2023-04-09T03:16:55.663Z,101484.31
2023-04-09T03:17:58.185Z,101488.44
2023-04-09T03:18:59.701Z,101479.09
2023-04-09T03:20:02.216Z,101491.31
2023-04-09T03:21:07.150Z,101488.00
2023-04-09T03:22:08.708Z,101489.03
2023-04-09T03:23:11.495Z,101491.94
2023-04-09T03:24:13.005Z,101490.28
2023-04-09T03:25:15.797Z,101485.53
2023-04-09T03:26:17.390Z,101488.84
2023-04-09T03:27:19.846Z,101492.50
2023-04-09T03:28:21.419Z,101487.66
2023-04-09T03:29:23.900Z,101479.09
2023-04-09T03:30:25.710Z,101486.13
2023-04-09T03:31:28.228Z,101483.66
2023-04-09T03:32:31.187Z,101488.63
2023-04-09T03:33:33.672Z,101482.84
2023-04-09T03:34:35.446Z,101481.97
2023-04-09T03:35:37.988Z,101480.94
2023-04-09T03:36:40.559Z,101475.78
2023-04-09T03:37:42.272Z,101485.09
2023-04-09T03:38:44.760Z,101484.66
2023-04-09T03:39:46.333Z,101489.81
2023-04-09T03:40:48.831Z,101484.88
2023-04-09T03:41:50.559Z,101486.34
2023-04-09T03:42:52.986Z,101487.97
2023-04-09T03:43:54.493Z,101478.31
2023-04-09T03:44:56.999Z,101479.06
2023-04-09T03:45:58.691Z,101474.81
2023-04-09T03:47:01.246Z,101478.66
2023-04-09T03:48:04.338Z,101483.09
2023-04-09T03:49:06.830Z,101481.84
2023-04-09T03:50:09.110Z,101489.09
2023-04-09T03:51:12.919Z,101486.66
2023-04-09T03:52:15.372Z,101481.63
2023-04-09T03:53:18.000Z,101490.28
2023-04-09T03:54:19.499Z,101487.88
2023-04-09T03:55:22.120Z,101482.75
2023-04-09T03:56:23.660Z,101487.63
2023-04-09T03:57:26.137Z,101489.66
2023-04-09T03:58:27.638Z,101489.88
2023-04-09T03:59:30.397Z,101495.19
2023-04-09T04:00:32.075Z,101486.69
2023-04-09T04:01:34.931Z,101493.78
2023-04-09T04:02:36.985Z,101473.03
2023-04-09T04:03:41.092Z,101486.50
2023-04-09T04:04:43.065Z,101486.25
2023-04-09T04:05:45.607Z,101486.66
2023-04-09T04:06:47.161Z,101484.13
2023-04-09T04:07:49.726Z,101486.66
2023-04-09T04:08:52.359Z,101490.78
2023-04-09T04:09:55.043Z,101487.47
2023-04-09T04:10:56.523Z,101496.66
2023-04-09T04:11:59.094Z,101498.22
2023-04-09T04:13:02.058Z,101495.44
2023-04-09T04:14:04.602Z,101490.06
2023-04-09T04:15:07.291Z,101499.59
2023-04-09T04:16:10.656Z,101498.41
2023-04-09T04:17:12.265Z,101500.81
2023-04-09T04:18:14.904Z,101495.97
2023-04-09T04:19:17.729Z,101499.94
2023-04-09T04:20:20.574Z,101502.16
2023-04-09T04:21:22.145Z,101499.66
2023-04-09T04:22:26.255Z,101498.78
2023-04-09T04:23:27.974Z,101504.13
2023-04-09T04:24:30.436Z,101494.97
2023-04-09T04:25:32.025Z,101504.13
2023-04-09T04:26:34.524Z,101493.53
2023-04-09T04:27:36.169Z,101504.13
2023-04-09T04:28:39.573Z,101492.53
2023-04-09T04:29:41.187Z,101508.47
2023-04-09T04:30:43.738Z,101506.19
2023-04-09T04:31:45.340Z,101507.94
2023-04-09T04:32:48.245Z,101512.50
2023-04-09T04:33:49.924Z,101511.38
2023-04-09T04:34:53.802Z,101508.88
2023-04-09T04:36:04.390Z,101509.25
2023-04-09T04:37:06.863Z,101504.13
2023-04-09T04:38:08.511Z,101515.22
2023-04-09T04:39:13.849Z,101505.50
2023-04-09T04:40:15.438Z,101510.56
2023-04-09T04:41:18.091Z,101511.44
2023-04-09T04:42:20.020Z,101506.41
2023-04-09T04:43:22.510Z,101506.13
2023-04-09T04:44:24.062Z,101511.72
2023-04-09T04:45:26.629Z,101509.50
2023-04-09T04:46:28.127Z,101512.88
2023-04-09T04:47:30.640Z,101515.00
2023-04-09T04:48:32.201Z,101514.50
2023-04-09T04:49:34.681Z,101520.78
2023-04-09T04:50:37.502Z,101518.50
2023-04-09T04:51:39.949Z,101521.44
2023-04-09T04:52:41.458Z,101521.59
2023-04-09T04:53:43.975Z,101521.88
2023-04-09T04:54:45.494Z,101517.13
2023-04-09T04:55:47.954Z,101527.13
2023-04-09T04:56:49.513Z,101532.06
2023-04-09T04:57:52.443Z,101534.63
2023-04-09T04:58:54.375Z,101526.13
2023-04-09T04:59:56.938Z,101540.53
2023-04-09T05:00:58.566Z,101528.06
2023-04-09T05:02:02.586Z,101524.72
2023-04-09T05:03:04.361Z,101530.28
2023-04-09T05:04:07.042Z,101532.47
2023-04-09T05:05:08.792Z,101528.50
2023-04-09T05:06:12.609Z,101530.50
2023-04-09T05:07:14.055Z,101531.16
2023-04-09T05:08:16.499Z,101524.34
2023-04-09T05:09:18.754Z,101533.03
2023-04-09T05:10:22.003Z,101532.44
2023-04-09T05:11:23.713Z,101542.31
2023-04-09T05:12:26.272Z,101543.03
2023-04-09T05:13:27.780Z,101544.78
2023-04-09T05:14:30.274Z,101537.97
2023-04-09T05:15:32.005Z,101540.97
2023-04-09T05:16:34.592Z,101526.63
2023-04-09T05:17:36.321Z,101543.25
2023-04-09T05:18:38.785Z,101546.66
2023-04-09T05:19:40.314Z,101545.75
2023-04-09T05:20:42.838Z,101541.22
2023-04-09T05:21:47.271Z,101541.81
2023-04-09T05:22:50.074Z,101553.56
2023-04-09T05:23:52.503Z,101548.63
2023-04-09T05:24:54.045Z,101553.19
2023-04-09T05:25:56.493Z,101549.25
2023-04-09T05:26:58.028Z,101551.59
2023-04-09T05:28:03.964Z,101551.41
2023-04-09T05:29:06.718Z,101538.97
2023-04-09T05:30:09.309Z,101547.94
2023-04-09T05:31:13.320Z,101547.03
2023-04-09T05:32:16.073Z,101547.75
2023-04-09T05:33:18.530Z,101542.56
2023-04-09T05:34:20.216Z,101539.16
2023-04-09T05:35:22.733Z,101540.91
2023-04-09T05:36:24.392Z,101541.13
2023-04-09T05:37:28.146Z,101541.13
2023-04-09T05:38:32.069Z,101538.00
2023-04-09T05:39:34.539Z,101540.81
2023-04-09T05:40:36.258Z,101541.22
2023-04-09T05:41:38.835Z,101530.03
2023-04-09T05:42:40.530Z,101534.28
2023-04-09T05:43:43.652Z,101537.66
2023-04-09T05:44:45.258Z,101538.31
2023-04-09T05:45:47.729Z,101537.88
2023-04-09T05:46:50.249Z,101532.28
2023-04-09T05:47:52.863Z,101537.28
2023-04-09T05:48:56.371Z,101532.66
2023-04-09T05:49:58.823Z,101523.84
2023-04-09T05:51:01.009Z,101524.44
2023-04-09T05:52:03.664Z,101521.16
2023-04-09T05:53:06.735Z,101524.66
2023-04-09T05:54:09.140Z,101516.38
2023-04-09T05:55:10.967Z,101533.25
2023-04-09T05:56:17.111Z,101529.09
2023-04-09T05:57:18.657Z,101527.25
2023-04-09T05:58:21.580Z,101525.38
2023-04-09T05:59:23.119Z,101527.22
2023-04-09T06:00:25.718Z,101529.47
2023-04-09T06:01:27.831Z,101524.69
2023-04-09T06:02:30.420Z,101528.16
2023-04-09T06:03:32.152Z,101526.75
2023-04-09T06:04:34.699Z,101525.09
2023-04-09T06:05:36.256Z,101522.41
2023-04-09T06:06:39.651Z,101518.31
2023-04-09T06:07:41.294Z,101523.66
2023-04-09T06:08:45.576Z,101524.75
2023-04-09T06:09:47.095Z,101518.72
2023-04-09T06:10:49.713Z,101519.13
2023-04-09T06:11:51.223Z,101530.75
2023-04-09T06:12:53.839Z,101535.75
2023-04-09T06:13:55.371Z,101529.34
2023-04-09T06:14:57.811Z,101531.19
2023-04-09T06:15:59.413Z,101536.56
2023-04-09T06:17:01.927Z,101527.47
2023-04-09T06:18:03.467Z,101528.91
2023-04-09T06:19:06.326Z,101534.72
2023-04-09T06:20:08.846Z,101520.41
2023-04-09T06:21:13.451Z,101527.59
2023-04-09T06:22:15.975Z,101538.63
2023-04-09T06:23:17.476Z,101540.28
2023-04-09T06:24:21.460Z,101534.44
2023-04-09T06:25:23.982Z,101547.16
2023-04-09T06:26:25.865Z,101538.25
2023-04-09T06:27:28.265Z,101548.22
2023-04-09T06:28:29.758Z,101546.56
2023-04-09T06:29:32.222Z,101550.91
2023-04-09T06:30:33.897Z,101553.16
2023-04-09T06:31:36.457Z,101549.59
2023-04-09T06:32:51.028Z,101547.09
2023-04-09T06:33:56.338Z,101550.19
2023-04-09T06:34:58.165Z,101549.63
2023-04-09T06:36:00.903Z,101547.97
2023-04-09T06:37:02.470Z,101546.16
2023-04-09T06:38:04.894Z,101539.50
2023-04-09T06:39:06.669Z,101540.31
2023-04-09T06:40:11.932Z,101541.75
2023-04-09T06:41:14.873Z,101545.28
2023-04-09T06:42:17.301Z,101544.47
2023-04-09T06:43:18.826Z,101546.97
2023-04-09T06:44:21.480Z,101543.44
2023-04-09T06:45:23.204Z,101544.44
2023-04-09T06:46:25.986Z,101547.25
2023-04-09T06:47:27.516Z,101548.09
2023-04-09T06:48:33.201Z,101546.34
2023-04-09T06:49:34.731Z,101542.78
2023-04-09T06:50:37.285Z,101539.56
2023-04-09T06:51:38.907Z,101541.28
2023-04-09T06:52:41.545Z,101549.00
2023-04-09T06:53:44.075Z,101550.47
2023-04-09T06:54:46.185Z,101546.88
2023-04-09T06:55:50.309Z,101548.34
2023-04-09T06:56:51.981Z,101546.72
2023-04-09T06:57:54.451Z,101552.63
2023-04-09T06:58:56.912Z,101553.97
2023-04-09T06:59:58.421Z,101549.16
2023-04-09T07:01:01.120Z,101549.34
2023-04-09T07:02:02.793Z,101547.50
2023-04-09T07:03:08.149Z,101547.75
2023-04-09T07:04:09.919Z,101553.34
2023-04-09T07:05:13.108Z,101549.06
2023-04-09T07:06:14.737Z,101550.16
2023-04-09T07:07:17.223Z,101548.09
2023-04-09T07:08:18.827Z,101552.16
2023-04-09T07:09:21.358Z,101559.91
2023-04-09T07:10:22.822Z,101560.41
2023-04-09T07:11:26.694Z,101550.84
2023-04-09T07:12:28.251Z,101559.13
2023-04-09T07:13:31.295Z,101558.75
2023-04-09T07:14:33.031Z,101559.53
2023-04-09T07:15:35.570Z,101557.75
2023-04-09T07:16:37.134Z,101562.25
2023-04-09T07:17:39.748Z,101553.72
2023-04-09T07:18:42.414Z,101563.94
2023-04-09T07:19:43.919Z,101559.84
2023-04-09T07:20:46.371Z,101559.50
2023-04-09T07:21:48.791Z,101562.91
2023-04-09T07:22:51.344Z,101564.56
2023-04-09T07:23:53.059Z,101568.47
2023-04-09T07:24:56.499Z,101569.63
2023-04-09T07:25:58.958Z,101571.44
2023-04-09T07:27:04.949Z,101572.06
2023-04-09T07:28:07.481Z,101573.41
2023-04-09T07:29:09.072Z,101578.78
2023-04-09T07:30:12.025Z,101569.25
2023-04-09T07:31:15.412Z,101566.66
2023-04-09T07:32:17.176Z,101573.13
2023-04-09T07:33:19.701Z,101575.31
2023-04-09T07:34:21.607Z,101573.56
2023-04-09T07:35:24.100Z,101569.16
2023-04-09T07:36:26.595Z,101571.97
2023-04-09T07:37:29.063Z,101575.19
2023-04-09T07:38:31.608Z,101573.50
2023-04-09T07:39:33.146Z,101578.53
2023-04-09T07:40:36.681Z,101571.22
2023-04-09T07:41:38.313Z,101574.06
2023-04-09T07:42:42.453Z,101579.66
2023-04-09T07:43:45.021Z,101578.09
2023-04-09T07:44:47.506Z,101580.13
2023-04-09T07:45:51.306Z,101578.78
2023-04-09T07:46:52.880Z,101584.94
2023-04-09T07:47:55.538Z,101577.66
2023-04-09T07:48:58.050Z,101577.88
2023-04-09T07:50:00.601Z,101569.69
2023-04-09T07:51:03.141Z,101572.78
2023-04-09T07:52:05.676Z,101570.88
2023-04-09T07:53:10.580Z,101577.41
2023-04-09T07:54:12.982Z,101570.41
2023-04-09T07:55:16.741Z,101569.09
2023-04-09T07:56:18.872Z,101577.25
2023-04-09T07:57:21.354Z,101574.19
2023-04-09T07:58:24.174Z,101572.88
2023-04-09T07:59:27.610Z,101578.59
2023-04-09T08:00:30.088Z,101581.06
2023-04-09T08:01:31.594Z,101573.81
2023-04-09T08:02:34.204Z,101576.16
2023-04-09T08:03:36.302Z,101569.28
2023-04-09T08:04:39.145Z,101572.69
2023-04-09T08:05:41.248Z,101578.78
2023-04-09T08:06:46.686Z,101576.06
2023-04-09T08:07:49.144Z,101572.09
2023-04-09T08:08:50.868Z,101574.75
2023-04-09T08:09:53.470Z,101580.16
2023-04-09T08:10:56.186Z,101585.19
2023-04-09T08:11:58.642Z,101576.88
2023-04-09T08:13:00.356Z,101576.94
2023-04-09T08:14:06.163Z,101577.81
2023-04-09T08:15:08.598Z,101582.53
2023-04-09T08:16:11.079Z,101587.00
2023-04-09T08:17:12.682Z,101571.91
2023-04-09T08:18:15.067Z,101585.44
2023-04-09T08:19:17.497Z,101577.91
2023-04-09T08:20:19.973Z,101574.63
2023-04-09T08:21:21.557Z,101588.00
2023-04-09T08:22:23.945Z,101584.69
2023-04-09T08:23:25.913Z,101592.34
2023-04-09T08:24:28.346Z,101586.81
2023-04-09T08:25:29.876Z,101595.97
2023-04-09T08:26:32.715Z,101588.94
2023-04-09T08:27:36.060Z,101593.78
2023-04-09T08:28:37.797Z,101590.34
2023-04-09T08:29:42.583Z,101589.66
2023-04-09T08:30:44.682Z,101586.03
2023-04-09T08:31:47.138Z,101575.13
2023-04-09T08:32:50.044Z,101586.38
2023-04-09T08:33:53.445Z,101583.56
2023-04-09T08:34:56.068Z,101591.06
2023-04-09T08:35:57.642Z,101589.03
2023-04-09T08:37:00.724Z,101585.03
2023-04-09T08:38:02.231Z,101583.84
2023-04-09T08:39:04.864Z,101574.22
2023-04-09T08:40:08.731Z,101577.44
2023-04-09T08:41:18.676Z,101583.63
2023-04-09T08:42:23.960Z,101582.19
2023-04-09T08:43:41.891Z,101581.56
2023-04-09T08:44:51.266Z,101585.31
2023-04-09T08:45:53.993Z,101575.25
2023-04-09T08:46:58.332Z,101588.03
2023-04-09T08:48:04.150Z,101579.44
2023-04-09T08:49:06.993Z,101549.38
2023-04-09T08:50:09.205Z,101583.78
2023-04-09T08:51:14.589Z,101578.94
2023-04-09T08:52:21.736Z,101581.00
2023-04-09T08:53:24.447Z,101578.91
2023-04-09T08:54:26.996Z,101581.56
2023-04-09T08:55:28.701Z,101574.81
2023-04-09T08:56:31.453Z,101579.38
2023-04-09T08:57:37.496Z,101571.91
2023-04-09T08:58:43.582Z,101574.66
2023-04-09T08:59:46.563Z,101572.63
2023-04-09T09:00:49.702Z,101576.84
2023-04-09T09:02:11.241Z,101574.13
2023-04-09T09:03:14.866Z,101577.78
2023-04-09T09:04:16.606Z,101571.09
2023-04-09T09:05:37.015Z,101576.97
2023-04-09T09:06:40.036Z,101564.84
2023-04-09T09:07:54.728Z,101570.03
2023-04-09T09:09:05.049Z,101563.31
2023-04-09T09:10:08.719Z,101568.19
2023-04-09T09:11:10.229Z,101568.25
2023-04-09T09:12:12.803Z,101568.41
2023-04-09T09:13:20.000Z,101559.88
2023-04-09T09:14:22.442Z,101570.31
2023-04-09T09:15:28.821Z,101568.19
2023-04-09T09:16:34.711Z,101567.50
2023-04-09T09:17:55.899Z,101573.31
2023-04-09T09:18:58.637Z,101572.13
2023-04-09T09:20:19.930Z,101566.72
2023-04-09T09:21:22.014Z,101566.38
2023-04-09T09:22:25.942Z,101558.84
2023-04-09T09:23:36.493Z,101560.63
2023-04-09T09:24:48.476Z,101561.63
2023-04-09T09:25:51.859Z,101564.72
2023-04-09T09:26:55.656Z,101562.03
2023-04-09T09:28:07.396Z,101565.66
2023-04-09T09:29:10.605Z,101557.41
2023-04-09T09:30:21.988Z,101548.38
2023-04-09T09:31:24.567Z,101558.09
2023-04-09T09:32:27.947Z,101560.84
2023-04-09T09:33:34.460Z,101554.97
2023-04-09T09:34:37.036Z,101551.38
2023-04-09T09:35:49.716Z,101558.19
2023-04-09T09:36:52.314Z,101554.88
2023-04-09T09:38:04.221Z,101551.88
2023-04-09T09:39:10.267Z,101557.09
2023-04-09T09:40:27.028Z,101553.53
2023-04-09T09:41:29.530Z,101554.09
2023-04-09T09:42:33.050Z,101557.50
2023-04-09T09:43:41.520Z,101557.31
2023-04-09T09:44:43.983Z,101557.47
2023-04-09T09:45:47.030Z,101552.97
2023-04-09T09:46:49.599Z,101546.75
2023-04-09T09:47:53.090Z,101551.38
2023-04-09T09:48:55.950Z,101554.78
2023-04-09T09:49:57.562Z,101552.91
2023-04-09T09:51:01.437Z,101555.94
2023-04-09T09:52:09.782Z,101553.69
2023-04-09T09:53:12.141Z,101550.22
2023-04-09T09:54:19.472Z,101548.78
2023-04-09T09:55:24.133Z,101546.09
2023-04-09T09:56:32.614Z,101547.00
2023-04-09T09:57:40.356Z,101553.47
2023-04-09T09:58:46.726Z,101552.78
2023-04-09T09:59:54.991Z,101559.41
2023-04-09T10:00:57.515Z,101555.31
2023-04-09T10:02:02.625Z,101553.06
2023-04-09T10:03:13.138Z,101551.38
2023-04-09T10:04:19.025Z,101548.19
2023-04-09T10:05:25.005Z,101544.00
2023-04-09T10:06:28.500Z,101545.34
2023-04-09T10:07:33.204Z,101544.34
2023-04-09T10:08:38.164Z,101536.94
2023-04-09T10:09:43.443Z,101534.25
2023-04-09T10:10:48.803Z,101538.91
2023-04-09T10:11:51.487Z,101525.44
2023-04-09T10:12:53.129Z,101535.13
2023-04-09T10:13:58.454Z,101535.31
2023-04-09T10:15:05.157Z,101532.91
2023-04-09T10:16:08.780Z,101534.75
2023-04-09T10:17:11.664Z,101531.69
2023-04-09T10:18:16.012Z,101535.09
2023-04-09T10:19:17.922Z,101526.03
2023-04-09T10:20:27.101Z,101532.69
2023-04-09T10:21:37.699Z,101532.44
2023-04-09T10:22:39.920Z,101526.97
2023-04-09T10:23:44.905Z,101525.56
2023-04-09T10:24:47.318Z,101527.41
2023-04-09T10:25:49.890Z,101522.03
2023-04-09T10:26:55.364Z,101532.78
2023-04-09T10:28:01.482Z,101523.00
2023-04-09T10:29:06.816Z,101524.44
2023-04-09T10:30:10.636Z,101528.66
2023-04-09T10:31:13.368Z,101529.44
2023-04-09T10:32:21.543Z,101518.66
2023-04-09T10:33:27.871Z,101538.34
2023-04-09T10:34:30.565Z,101532.19
2023-04-09T10:35:32.143Z,101530.56
2023-04-09T10:36:34.626Z,101524.22
2023-04-09T10:37:37.091Z,101532.56
2023-04-09T10:38:41.133Z,101526.56
2023-04-09T10:39:47.277Z,101529.94
2023-04-09T10:40:50.775Z,101522.88
2023-04-09T10:41:55.561Z,101525.22
2023-04-09T10:42:59.394Z,101516.06
2023-04-09T10:44:01.829Z,101525.09
2023-04-09T10:45:10.661Z,101524.13
2023-04-09T10:46:29.494Z,101516.47
2023-04-09T10:47:33.994Z,101520.97
2023-04-09T10:48:37.030Z,101525.19
2023-04-09T10:49:40.656Z,101513.84
2023-04-09T10:50:45.086Z,101520.06
2023-04-09T10:51:50.900Z,101530.44
2023-04-09T10:52:54.944Z,101517.84
2023-04-09T10:53:56.404Z,101500.75
2023-04-09T10:54:58.920Z,101506.94
2023-04-09T10:56:01.959Z,101519.50
2023-04-09T10:57:20.174Z,101512.56
2023-04-09T10:58:22.844Z,101519.38
2023-04-09T10:59:24.432Z,101520.19
2023-04-09T11:00:26.880Z,101508.16
2023-04-09T11:01:28.508Z,101506.81
2023-04-09T11:03:12.118Z,101506.13
2023-04-09T11:04:21.576Z,101510.88
2023-04-09T11:05:28.957Z,101506.28
2023-04-09T11:06:32.327Z,101507.50
2023-04-09T11:07:40.465Z,101500.56
2023-04-09T11:08:45.340Z,101492.59
2023-04-09T11:09:47.657Z,101499.41
2023-04-09T11:10:52.254Z,101508.75
2023-04-09T11:11:53.957Z,101498.78
2023-04-09T11:12:56.389Z,101506.03
2023-04-09T11:13:59.834Z,101500.56
2023-04-09T11:15:01.318Z,101494.06
2023-04-09T11:16:06.854Z,101501.50
2023-04-09T11:17:08.833Z,101498.97
2023-04-09T11:18:15.484Z,101491.13
2023-04-09T11:19:19.060Z,101495.84
2023-04-09T11:20:23.321Z,101487.47
2023-04-09T11:21:27.713Z,101499.47
2023-04-09T11:22:30.293Z,101502.63
2023-04-09T11:23:34.052Z,101503.75
2023-04-09T11:24:41.956Z,101507.25
2023-04-09T11:25:49.410Z,101502.16
2023-04-09T11:26:51.281Z,101497.13
2023-04-09T11:27:54.382Z,101502.09
2023-04-09T11:28:58.604Z,101490.47
2023-04-09T11:30:00.090Z,101493.34
2023-04-09T11:31:06.216Z,101490.91
2023-04-09T11:32:07.810Z,101489.66
2023-04-09T11:33:10.768Z,101491.94
2023-04-09T11:34:13.539Z,101488.47
2023-04-09T11:35:17.826Z,101491.53
2023-04-09T11:36:20.443Z,101491.56
2023-04-09T11:37:22.549Z,101491.91
2023-04-09T11:38:27.598Z,101484.44
2023-04-09T11:39:29.178Z,101490.72
2023-04-09T11:40:31.666Z,101493.41
2023-04-09T11:41:33.956Z,101488.06
2023-04-09T11:42:37.818Z,101496.06
2023-04-09T11:43:40.300Z,101502.84
2023-04-09T11:44:42.189Z,101490.84
2023-04-09T11:45:47.088Z,101495.63
2023-04-09T11:46:49.167Z,101501.19
2023-04-09T11:47:52.641Z,101495.31
2023-04-09T11:48:55.867Z,101488.22
2023-04-09T11:49:58.444Z,101478.78
2023-04-09T11:51:03.964Z,101490.78
2023-04-09T11:52:05.986Z,101488.91
2023-04-09T11:53:19.139Z,101494.13
2023-04-09T11:54:20.805Z,101481.75
2023-04-09T11:55:27.143Z,101485.81
2023-04-09T11:56:29.245Z,101478.50
2023-04-09T11:57:43.813Z,101479.72
2023-04-09T11:58:47.477Z,101484.69
2023-04-09T11:59:49.111Z,101485.31
2023-04-09T12:00:53.989Z,101484.38
2023-04-09T12:01:58.131Z,101488.63
2023-04-09T12:03:03.605Z,101489.34
2023-04-09T12:04:06.948Z,101483.72
2023-04-09T12:05:11.811Z,101482.94
2023-04-09T12:06:16.415Z,101474.13
2023-04-09T12:07:17.939Z,101475.09